Time;durP1;ratioP1;P1;durP2;ratioP2;P2;SDS_P1;SDS_P2;PMS_P1;PMS_P2;Temp;Humidity;BMP_temperature;BMP_pressure;BME280_temperature;BME280_humidity;BME280_pressure;Samples;Min_cycle;Max_cycle;Signal;HPM_P1;HPM_P2
2023/01/17 03:08:32;;;;;;;;;;;;;;;2.92;100.00;98326.31;108712;1270;138211;-62
2023/01/17 03:10:59;;;;;;;16.80;11.40;;;;;;;2.91;100.00;98322.80;108021;1261;25375;-61
2023/01/17 03:13:25;;;;;;;16.90;12.20;;;;;;;2.92;100.00;98324.46;108137;1261;25398;-61
2023/01/17 03:15:52;;;;;;;;;;;;;;;2.93;100.00;98328.00;108013;1261;138043;-61
2023/01/17 03:18:19;;;;;;;19.50;12.80;;;;;;;2.92;100.00;98325.94;107972;1261;25321;-61
2023/01/17 03:20:45;;;;;;;18.10;12.60;;;;;;;2.91;100.00;98325.76;107349;1261;138652;-62
2023/01/17 03:23:12;;;;;;;17.10;11.80;;;;;;;2.92;100.00;98321.80;107988;1258;25429;-61
2023/01/17 03:25:38;;;;;;;16.80;11.70;;;;;;;2.93;100.00;98318.57;107964;1258;25346;-62
2023/01/17 03:28:05;;;;;;;16.50;10.80;;;;;;;2.93;100.00;98317.98;107835;1258;138207;-62
2023/01/17 03:30:32;;;;;;;16.80;11.60;;;;;;;2.92;100.00;98317.21;107927;1258;22544;-62
2023/01/17 03:32:59;;;;;;;20.60;11.50;;;;;;;2.89;100.00;98311.12;107815;1244;137955;-62
2023/01/17 03:35:27;;;;;;;14.70;11.50;;;;;;;2.91;100.00;98320.75;107974;1258;22647;-62
2023/01/17 03:37:53;;;;;;;20.00;12.20;;;;;;;2.92;100.00;98316.02;107776;1258;139239;-62
2023/01/17 03:40:20;;;;;;;23.40;11.50;;;;;;;2.92;100.00;98317.27;108007;1258;25447;-62
2023/01/17 03:42:46;;;;;;;24.40;12.50;;;;;;;2.93;100.00;98314.83;107973;1258;26196;-61
2023/01/17 03:45:13;;;;;;;13.70;9.90;;;;;;;2.94;100.00;98307.63;107817;1258;138521;-61
2023/01/17 03:47:40;;;;;;;20.30;12.40;;;;;;;2.94;100.00;98307.74;108685;1250;22942;-63
2023/01/17 03:50:07;;;;;;;18.60;10.90;;;;;;;2.94;100.00;98305.59;108617;1250;138340;-62
2023/01/17 03:52:34;;;;;;;16.80;11.60;;;;;;;2.97;100.00;98302.84;108692;1250;22667;-63
2023/01/17 03:55:01;;;;;;;20.40;12.00;;;;;;;2.98;100.00;98303.08;108623;1245;22915;-63
2023/01/17 03:57:28;;;;;;;20.20;13.20;;;;;;;2.99;100.00;98299.23;112713;1250;139962;-64
2023/01/17 03:59:55;;;;;;;18.40;12.70;;;;;;;3.01;100.00;98291.42;112828;1250;22320;-62
2023/01/17 04:02:23;;;;;;;19.90;11.40;;;;;;;3.02;100.00;98294.25;112732;1250;139430;-63
2023/01/17 04:04:50;;;;;;;17.80;12.00;;;;;;;3.05;100.00;98293.26;112852;1250;23004;-63
2023/01/17 04:07:16;;;;;;;22.20;13.30;;;;;;;3.07;100.00;98286.10;112847;1250;22407;-62
2023/01/17 04:09:43;;;;;;;18.40;12.00;;;;;;;3.10;100.00;98279.80;112722;1251;139752;-63
2023/01/17 04:12:09;;;;;;;18.10;12.10;;;;;;;3.12;100.00;98281.84;112855;1251;22180;-62
2023/01/17 04:14:37;;;;;;;16.00;12.30;;;;;;;3.15;100.00;98281.14;112726;1251;138226;-63
2023/01/17 04:17:03;;;;;;;;;;;;;;;3.17;100.00;98286.30;112810;1251;22417;-63
2023/01/17 04:19:30;;;;;;;20.10;11.10;;;;;;;3.18;100.00;98282.70;112821;1251;22324;-63
2023/01/17 04:21:57;;;;;;;;;;;;;;;3.20;100.00;98285.48;112734;1251;138567;-63
2023/01/17 04:24:23;;;;;;;25.00;13.00;;;;;;;3.20;100.00;98283.33;112847;1251;22402;-63
2023/01/17 04:26:50;;;;;;;23.50;14.20;;;;;;;3.21;100.00;98283.60;112785;1251;138290;-63
2023/01/17 04:29:16;;;;;;;;;;;;;;;3.21;100.00;98283.92;112856;1251;23481;-62
2023/01/17 04:31:43;;;;;;;21.30;13.50;;;;;;;3.22;100.00;98287.56;112855;1251;23259;-62
2023/01/17 04:34:10;;;;;;;18.30;12.10;;;;;;;3.23;100.00;98285.89;112848;1251;22340;-62
2023/01/17 04:36:36;;;;;;;20.70;13.40;;;;;;;3.23;100.00;98288.12;112836;1251;22357;-62
2023/01/17 04:39:09;;;;;;;22.20;13.20;;;;;;;3.23;100.00;98282.56;112735;1251;138340;-62
2023/01/17 04:41:36;;;;;;;19.80;13.50;;;;;;;3.24;100.00;98284.84;112832;1251;22332;-62
2023/01/17 04:44:03;;;;;;;22.20;13.70;;;;;;;3.24;100.00;98285.77;112732;1251;139325;-62
2023/01/17 04:46:29;;;;;;;22.50;14.30;;;;;;;3.24;100.00;98283.42;112667;1251;22354;-62
2023/01/17 04:48:56;;;;;;;22.70;14.50;;;;;;;3.23;100.00;98278.42;112855;1251;22873;-62
2023/01/17 04:51:23;;;;;;;25.00;16.30;;;;;;;3.23;100.00;98280.09;112734;1251;138114;-61
2023/01/17 04:53:49;;;;;;;20.80;14.10;;;;;;;3.22;100.00;98280.77;112854;1251;23168;-62
2023/01/17 04:56:16;;;;;;;23.00;14.30;;;;;;;3.23;100.00;98283.37;112748;1251;138496;-61
2023/01/17 04:58:43;;;;;;;;;;;;;;;3.23;100.00;98282.08;112871;1251;23558;-61
2023/01/17 05:01:09;;;;;;;24.50;13.10;;;;;;;3.23;100.00;98281.65;112841;1251;22506;-62
2023/01/17 05:03:36;;;;;;;25.70;15.30;;;;;;;3.23;100.00;98277.45;112742;1251;138196;-62
2023/01/17 05:06:03;;;;;;;;;;;;;;;3.22;100.00;98283.95;112835;1251;22375;-61
2023/01/17 05:08:30;;;;;;;27.20;14.70;;;;;;;3.21;100.00;98284.10;112714;1251;124746;-62
2023/01/17 05:10:56;;;;;;;24.00;15.30;;;;;;;3.22;100.00;98281.19;112833;1251;22365;-61
2023/01/17 05:13:23;;;;;;;27.50;16.50;;;;;;;3.17;100.00;98268.69;112839;1251;22350;-60
2023/01/17 05:15:50;;;;;;;20.20;14.30;;;;;;;3.22;100.00;98279.58;112747;1251;138999;-60
2023/01/17 05:18:16;;;;;;;27.80;15.60;;;;;;;3.22;100.00;98273.40;112816;1251;22342;-60
2023/01/17 05:20:43;;;;;;;22.60;13.90;;;;;;;3.19;100.00;98266.17;112732;1251;139030;-60
2023/01/17 05:23:10;;;;;;;;;;;;;;;3.23;100.00;98270.89;112854;1251;22350;-60
2023/01/17 05:25:36;;;;;;;21.70;15.90;;;;;;;3.23;100.00;98272.17;112839;1251;22309;-60
2023/01/17 05:28:04;;;;;;;25.60;16.20;;;;;;;3.22;100.00;98265.04;112744;1251;138940;-60
2023/01/17 05:30:31;;;;;;;26.10;15.70;;;;;;;3.22;100.00;98269.79;112838;1251;22314;-60
2023/01/17 05:32:57;;;;;;;;;;;;;;;3.24;100.00;98263.27;112554;1251;138196;-60
2023/01/17 05:35:26;;;;;;;25.20;16.40;;;;;;;3.24;100.00;98264.71;112491;1251;158620;-60
2023/01/17 05:39:52;;;;;;;28.70;17.30;;;;;;;3.25;100.00;98266.63;102902;1306;544938;-61
2023/01/17 05:42:19;;;;;;;;;;;;;;;3.23;100.00;98264.11;104677;1285;22526;-60
2023/01/17 05:44:46;;;;;;;31.00;17.40;;;;;;;3.23;100.00;98263.69;104720;1288;124622;-60
2023/01/17 05:47:13;;;;;;;28.50;18.00;;;;;;;3.23;100.00;98263.98;104934;1282;23138;-61
2023/01/17 05:49:40;;;;;;;30.10;18.70;;;;;;;3.22;100.00;98266.89;105055;1285;25434;-60
2023/01/17 05:52:06;;;;;;;29.80;18.90;;;;;;;3.23;100.00;98263.29;109224;1287;137505;-61
2023/01/17 05:54:33;;;;;;;31.10;19.40;;;;;;;3.24;100.00;98271.38;109555;1278;106553;-61
2023/01/17 05:57:00;;;;;;;30.70;18.40;;;;;;;3.24;100.00;98269.99;109529;1284;138629;-61
2023/01/17 05:59:27;;;;;;;31.00;20.20;;;;;;;3.26;100.00;98267.23;109651;1278;23737;-61
2023/01/17 06:02:03;;;;;;;29.50;17.50;;;;;;;3.27;100.00;98268.70;109552;1280;138009;-61
2023/01/17 06:04:29;;;;;;;31.70;18.80;;;;;;;3.27;100.00;98271.35;109667;1279;22371;-61
2023/01/17 06:06:56;;;;;;;;;;;;;;;3.29;100.00;98278.44;109661;1281;22414;-60
2023/01/17 06:09:23;;;;;;;33.20;17.50;;;;;;;3.31;100.00;98282.62;109497;1282;125864;-61
2023/01/17 06:11:50;;;;;;;32.50;19.20;;;;;;;3.32;100.00;98289.89;109597;1287;23555;-61
2023/01/17 06:14:17;;;;;;;34.60;21.50;;;;;;;3.33;100.00;98292.23;109531;1282;138751;-61
2023/01/17 06:16:46;;;;;;;31.50;19.20;;;;;;;3.35;100.00;98298.29;109626;1281;22804;-61
2023/01/17 06:19:13;;;;;;;29.90;19.10;;;;;;;3.35;100.00;98297.91;109581;1279;23614;-61
2023/01/17 06:21:39;;;;;;;29.30;19.80;;;;;;;3.36;100.00;98302.40;109433;1281;137951;-61
2023/01/17 06:24:06;;;;;;;30.40;19.30;;;;;;;3.37;100.00;98306.15;109559;1280;22401;-61
2023/01/17 06:26:33;;;;;;;33.30;19.60;;;;;;;3.39;100.00;98307.31;109451;1282;137881;-61
2023/01/17 06:29:00;;;;;;;35.70;22.00;;;;;;;3.39;100.00;98305.11;109628;1281;23086;-61
2023/01/17 06:31:26;;;;;;;;;;;;;;;3.40;100.00;98302.91;109506;1281;22482;-61
2023/01/17 06:33:54;;;;;;;37.20;20.80;;;;;;;3.40;100.00;98303.77;109466;1283;124869;-61
2023/01/17 06:36:23;;;;;;;32.60;20.70;;;;;;;3.40;100.00;98302.77;109591;1286;22425;-61
2023/01/17 06:38:50;;;;;;;40.70;21.50;;;;;;;3.40;100.00;98307.88;109525;1279;137796;-61
2023/01/17 06:41:16;;;;;;;35.90;20.40;;;;;;;3.40;100.00;98310.89;105602;1284;22525;-60
2023/01/17 06:43:43;;;;;;;29.70;19.80;;;;;;;3.41;100.00;98307.02;105151;1280;22532;-60
2023/01/17 06:46:10;;;;;;;;;;;;;;;3.41;100.00;98309.13;105005;1280;23863;-60
2023/01/17 06:48:37;;;;;;;34.30;21.90;;;;;;;3.41;100.00;98307.89;105091;1283;23034;-59
2023/01/17 06:51:04;;;;;;;40.80;20.10;;;;;;;3.40;100.00;98308.03;104890;1279;138244;-61
2023/01/17 06:53:30;;;;;;;;;;;;;;;3.39;100.00;98306.61;105014;1286;22939;-61
2023/01/17 06:55:57;;;;;;;34.00;20.40;;;;;;;3.38;100.00;98306.42;104958;1286;125156;-61
2023/01/17 06:58:24;;;;;;;;;;;;;;;3.36;100.00;98308.65;105043;1282;22618;-61
2023/01/17 07:00:51;;;;;;;32.40;19.90;;;;;;;3.35;100.00;98308.84;105109;1282;23075;-61
2023/01/17 07:03:19;;;;;;;34.30;22.30;;;;;;;3.26;100.00;98294.52;105003;1280;140414;-60
2023/01/17 07:05:46;;;;;;;38.70;22.70;;;;;;;3.32;100.00;98303.68;105193;1279;22543;-61
2023/01/17 07:08:13;;;;;;;40.10;20.30;;;;;;;3.28;100.00;98301.09;105164;1272;138464;-62
2023/01/17 07:10:40;;;;;;;;;;;;;;;3.32;100.00;98304.98;105156;1282;24317;-61
2023/01/17 07:13:07;;;;;;;38.80;21.40;;;;;;;3.32;100.00;98306.75;105010;1286;22760;-61
2023/01/17 07:15:34;;;;;;;31.70;20.30;;;;;;;3.32;100.00;98305.35;109404;1285;138742;-67
2023/01/17 07:18:01;;;;;;;36.90;22.40;;;;;;;3.32;100.00;98309.45;109549;1281;22296;-60
2023/01/17 07:20:28;;;;;;;39.90;22.10;;;;;;;3.32;100.00;98305.79;109398;1281;138343;-60
2023/01/17 07:22:55;;;;;;;32.30;19.60;;;;;;;3.33;100.00;98303.41;109606;1282;22179;-60
2023/01/17 07:25:22;;;;;;;;;;;;;;;3.33;100.00;98304.08;109572;1279;22511;-60
2023/01/17 07:27:52;;;;;;;40.10;21.60;;;;;;;3.35;100.00;98303.66;109414;1282;124346;-60
2023/01/17 07:30:19;;;;;;;36.40;21.90;;;;;;;3.36;100.00;98303.69;109577;1281;22180;-60
2023/01/17 07:32:52;;;;;;;;;;;;;;;3.36;100.00;98300.04;109351;1285;139396;-60
2023/01/17 07:35:19;;;;;;;34.80;19.70;;;;;;;3.36;100.00;98302.02;109574;1280;22398;-60
2023/01/17 07:37:49;;;;;;;36.50;20.60;;;;;;;3.37;100.00;98302.27;109494;1285;139075;-60
2023/01/17 07:40:16;;;;;;;36.00;20.40;;;;;;;3.38;100.00;98300.95;109542;1279;23209;-61
2023/01/17 07:42:43;;;;;;;39.30;20.00;;;;;;;3.40;100.00;98293.39;109536;1282;22197;-61
2023/01/17 07:45:10;;;;;;;;;;;;;;;3.41;100.00;98294.43;109453;1285;138658;-60
2023/01/17 07:47:37;;;;;;;38.00;19.80;;;;;;;3.42;100.00;98291.38;109579;1286;22230;-60
2023/01/17 07:50:04;;;;;;;;;;;;;;;3.42;100.00;98293.16;109517;1285;138960;-60
2023/01/17 07:52:31;;;;;;;28.70;18.80;;;;;;;3.42;100.00;98294.89;109595;1278;22214;-60
2023/01/17 07:54:57;;;;;;;32.60;19.50;;;;;;;3.43;100.00;98296.67;109583;1285;23064;-61
2023/01/17 07:57:24;;;;;;;31.50;19.50;;;;;;;3.40;100.00;98291.40;109450;1286;137724;-60
2023/01/17 07:59:51;;;;;;;;;;;;;;;3.37;100.00;98285.91;109487;1286;22403;-60
2023/01/17 08:02:19;;;;;;;35.60;18.20;;;;;;;3.46;100.00;98297.70;109473;1282;124248;-60
2023/01/17 08:04:46;;;;;;;32.10;19.30;;;;;;;3.47;100.00;98297.27;109581;1282;22376;-60
2023/01/17 08:07:13;;;;;;;;;;;;;;;3.48;100.00;98294.75;109652;1285;22531;-60
2023/01/17 08:09:40;;;;;;;36.70;21.30;;;;;;;3.46;100.00;98292.36;109451;1285;125656;-60
2023/01/17 08:12:07;;;;;;;32.80;20.40;;;;;;;3.50;100.00;98293.34;109520;1282;22328;-60
2023/01/17 08:14:34;;;;;;;;;;;;;;;3.52;100.00;98289.45;109470;1282;138052;-60
2023/01/17 08:17:14;;;;;;;32.60;20.20;;;;;;;3.53;100.00;98292.70;109454;1286;22269;-60
2023/01/17 08:19:42;;;;;;;34.30;21.60;;;;;;;3.53;100.00;98295.51;109551;1282;22375;-61
2023/01/17 08:22:10;;;;;;;35.80;20.20;;;;;;;3.54;100.00;98292.72;109440;1285;138121;-60
2023/01/17 08:24:37;;;;;;;36.90;22.10;;;;;;;3.54;100.00;98290.48;109648;1285;22476;-61
2023/01/17 08:27:04;;;;;;;30.90;20.40;;;;;;;3.56;100.00;98287.70;109405;1282;138566;-61
2023/01/17 08:29:31;;;;;;;;;;;;;;;3.53;100.00;98278.70;109537;1287;23073;-60
2023/01/17 08:31:57;;;;;;;36.10;22.10;;;;;;;3.59;100.00;98281.40;109447;1282;125889;-60
2023/01/17 08:34:25;;;;;;;33.80;20.30;;;;;;;3.60;100.00;98278.52;109534;1281;22295;-60
2023/01/17 08:36:52;;;;;;;40.10;21.40;;;;;;;3.60;100.00;98277.59;109513;1286;22419;-60
2023/01/17 08:39:20;;;;;;;38.20;22.40;;;;;;;3.58;100.00;98267.20;109419;1285;138279;-60
2023/01/17 08:41:47;;;;;;;36.20;21.60;;;;;;;3.62;100.00;98271.35;109567;1282;22284;-61
2023/01/17 08:44:14;;;;;;;37.10;22.60;;;;;;;3.64;100.00;98270.75;109442;1285;138371;-60
2023/01/17 08:46:42;;;;;;;42.80;22.60;;;;;;;3.65;100.00;98261.28;109578;1286;22190;-60
2023/01/17 08:49:10;;;;;;;38.90;22.50;;;;;;;3.67;100.00;98257.93;109561;1279;22382;-61
2023/01/17 08:51:37;;;;;;;42.50;23.20;;;;;;;3.69;100.00;98258.50;109354;1280;138485;-60
2023/01/17 08:54:04;;;;;;;37.10;21.70;;;;;;;3.71;100.00;98248.36;109543;1281;22452;-60
2023/01/17 08:56:30;;;;;;;;;;;;;;;3.72;100.00;98247.20;109445;1286;138792;-60
2023/01/17 08:58:57;;;;;;;37.80;21.50;;;;;;;3.73;100.00;98240.10;109481;1285;22495;-60
2023/01/17 09:01:24;;;;;;;42.40;23.20;;;;;;;3.75;100.00;98239.04;109814;1278;22325;-60
2023/01/17 09:03:51;;;;;;;36.50;22.00;;;;;;;3.76;100.00;98237.23;109635;1281;138496;-59
2023/01/17 09:06:18;;;;;;;;;;;;;;;3.78;100.00;98234.27;109737;1275;22598;-60
2023/01/17 09:08:45;;;;;;;37.40;21.70;;;;;;;3.74;100.00;98220.66;109672;1281;124199;-60
2023/01/17 09:11:14;;;;;;;35.60;21.70;;;;;;;3.79;100.00;98230.27;109724;1279;22328;-60
2023/01/17 09:13:41;;;;;;;33.00;20.40;;;;;;;3.80;100.00;98225.06;109735;1278;22202;-60
2023/01/17 09:16:08;;;;;;;;;;;;;;;3.82;100.00;98221.38;109694;1281;138134;-60
2023/01/17 09:18:35;;;;;;;38.90;21.10;;;;;;;3.80;100.00;98217.58;109747;1281;23027;-60
2023/01/17 09:21:08;;;;;;;;;;;;;;;3.84;100.00;98210.95;109604;1279;139414;-60
2023/01/17 09:23:35;;;;;;;38.10;22.40;;;;;;;3.85;100.00;98206.72;109760;1279;22195;-60
2023/01/17 09:26:01;;;;;;;44.90;24.60;;;;;;;3.85;100.00;98206.78;109618;1281;138699;-59
2023/01/17 09:28:28;;;;;;;36.70;21.00;;;;;;;3.87;100.00;98201.15;109736;1276;22274;-60
2023/01/17 09:30:55;;;;;;;40.80;21.10;;;;;;;3.90;100.00;98200.20;109720;1276;22586;-60
2023/01/17 09:33:23;;;;;;;;;;;;;;;3.92;100.00;98194.58;109576;1279;138622;-60
2023/01/17 09:35:50;;;;;;;38.40;21.90;;;;;;;3.94;100.00;98192.71;109724;1278;22725;-60
2023/01/17 09:38:16;;;;;;;38.20;21.70;;;;;;;3.95;100.00;98191.11;109628;1282;139451;-59
2023/01/17 09:40:44;;;;;;;36.20;21.70;;;;;;;3.96;100.00;98186.71;109662;1276;22348;-60
2023/01/17 09:43:37;;;;;;;40.20;22.00;;;;;;;3.98;100.00;98187.60;109684;1276;22209;-60
2023/01/17 09:46:13;;;;;;;37.50;22.10;;;;;;;4.00;100.00;98180.47;109592;1278;137982;-60
2023/01/17 09:48:40;;;;;;;34.70;22.40;;;;;;;4.01;100.00;98175.74;109610;1277;22215;-60
2023/01/17 09:51:11;;;;;;;34.40;20.80;;;;;;;4.03;100.00;98174.10;109559;1275;138410;-60
2023/01/17 09:53:38;;;;;;;34.80;22.50;;;;;;;4.05;100.00;98176.53;109683;1282;22410;-60
2023/01/17 09:56:09;;;;;;;40.10;24.00;;;;;;;4.06;100.00;98165.06;109540;1279;138261;-60
2023/01/17 09:58:45;;;;;;;35.50;21.60;;;;;;;4.08;100.00;98165.48;109706;1276;22328;-60
2023/01/17 10:02:05;;;;;;;36.30;23.00;;;;;;;4.09;100.00;98162.45;109662;1279;22961;-60
2023/01/17 10:05:20;;;;;;;47.50;24.60;;;;;;;4.11;100.00;98165.05;109279;1284;22422;-60
2023/01/17 10:08:02;;;;;;;41.20;22.40;;;;;;;4.14;100.00;98162.70;109282;1282;23081;-60
2023/01/17 10:10:33;;;;;;;35.50;22.60;;;;;;;4.15;100.00;98154.54;109260;1284;22215;-60
2023/01/17 10:13:03;;;;;;;43.20;23.60;;;;;;;4.17;100.00;98155.31;109218;1284;23042;-60
2023/01/17 10:15:43;;;;;;;42.50;24.00;;;;;;;4.17;100.00;98152.04;109185;1283;139842;-60
2023/01/17 10:18:18;;;;;;;36.10;23.50;;;;;;;4.18;100.00;98150.08;109192;1287;22182;-60
2023/01/17 10:21:21;;;;;;;43.40;22.70;;;;;;;4.19;100.00;98153.48;109106;1284;139245;-61
2023/01/17 10:24:00;;;;;;;45.90;24.20;;;;;;;4.20;100.00;98152.64;109223;1289;22914;-61
2023/01/17 10:26:26;;;;;;;43.20;23.00;;;;;;;4.21;100.00;98147.58;109158;1289;138561;-61
2023/01/17 10:28:58;;;;;;;42.40;23.70;;;;;;;4.19;100.00;98146.86;109287;1289;22371;-60
2023/01/17 10:31:26;;;;;;;40.80;23.00;;;;;;;4.24;100.00;98149.84;109268;1289;22279;-61
2023/01/17 10:33:54;;;;;;;37.80;23.10;;;;;;;4.24;100.00;98146.44;109250;1288;138901;-60
2023/01/17 10:36:25;;;;;;;44.20;23.70;;;;;;;4.23;100.00;98147.66;109359;1289;22290;-60
2023/01/17 10:38:54;;;;;;;43.40;24.30;;;;;;;4.23;100.00;98143.84;109279;1282;141434;-60
2023/01/17 10:41:29;;;;;;;42.60;24.40;;;;;;;4.24;100.00;98141.26;109684;1282;22298;-60
2023/01/17 10:44:02;;;;;;;45.30;27.10;;;;;;;4.24;100.00;98139.75;109570;1282;138422;-61
2023/01/17 10:46:42;;;;;;;39.40;25.40;;;;;;;4.24;100.00;98145.30;109908;1273;22361;-60
2023/01/17 10:49:20;;;;;;;42.50;25.20;;;;;;;4.22;100.00;98136.61;109814;1275;22208;-60
2023/01/17 10:51:58;;;;;;;40.80;24.40;;;;;;;4.22;100.00;98131.96;109748;1272;139507;-60
2023/01/17 10:54:31;;;;;;;45.90;24.30;;;;;;;4.22;100.00;98125.33;109888;1278;22917;-60
2023/01/17 10:56:58;;;;;;;53.60;27.60;;;;;;;4.23;100.00;98124.37;109886;1279;139743;-61
2023/01/17 10:59:32;;;;;;;43.60;25.30;;;;;;;4.23;100.00;98120.60;109961;1272;22419;-61
2023/01/17 11:01:59;;;;;;;42.30;23.60;;;;;;;4.24;100.00;98118.23;109776;1279;138289;-61
2023/01/17 11:04:39;;;;;;;40.00;25.60;;;;;;;4.23;100.00;98111.33;109978;1272;22198;-62
2023/01/17 11:07:14;;;;;;;41.00;22.90;;;;;;;4.24;100.00;98109.08;109989;1272;22408;-62
2023/01/17 11:09:52;;;;;;;39.90;23.90;;;;;;;4.24;100.00;98100.94;109844;1272;139014;-60
2023/01/17 11:12:32;;;;;;;42.40;23.50;;;;;;;4.26;100.00;98094.88;109960;1278;22210;-61
2023/01/17 11:15:00;;;;;;;47.60;25.70;;;;;;;4.28;100.00;98091.71;109856;1279;138611;-61
2023/01/17 11:17:27;;;;;;;46.60;26.60;;;;;;;4.30;100.00;98090.17;109963;1273;22397;-60
2023/01/17 11:19:56;;;;;;;;;;;;;;;4.32;100.00;98089.23;109851;1280;23263;-61
2023/01/17 11:22:23;;;;;;;40.90;23.60;;;;;;;4.33;100.00;98092.41;109980;1279;22681;-61
2023/01/17 11:24:52;;;;;;;49.50;27.10;;;;;;;4.36;100.00;98088.65;110045;1278;22234;-61
2023/01/17 11:27:24;;;;;;;39.70;23.80;;;;;;;4.37;100.00;98090.73;109879;1279;138869;-61
2023/01/17 11:30:02;;;;;;;41.90;24.40;;;;;;;4.38;100.00;98081.95;109918;1276;22446;-61
2023/01/17 11:32:32;;;;;;;41.70;24.20;;;;;;;4.39;100.00;98076.36;109795;1273;138643;-61
2023/01/17 11:35:11;;;;;;;46.50;24.70;;;;;;;4.40;100.00;98069.78;110012;1273;22351;-61
2023/01/17 11:37:39;;;;;;;42.80;25.70;;;;;;;4.41;100.00;98075.35;109961;1279;22424;-60
2023/01/17 11:40:45;;;;;;;45.30;25.10;;;;;;;4.42;100.00;98071.20;109767;1271;139087;-60
2023/01/17 11:43:19;;;;;;;38.10;24.40;;;;;;;4.45;100.00;98073.95;110007;1278;22265;-60
2023/01/17 11:46:02;;;;;;;40.30;24.80;;;;;;;4.46;100.00;98064.25;109880;1272;139270;-60
2023/01/17 11:48:34;;;;;;;45.00;24.60;;;;;;;4.48;100.00;98058.90;109916;1277;22237;-60
2023/01/17 11:51:30;;;;;;;41.10;22.50;;;;;;;4.48;100.00;98053.36;109892;1278;138252;-60
2023/01/17 11:54:07;;;;;;;43.30;23.30;;;;;;;4.50;100.00;98051.81;109997;1277;22316;-60
2023/01/17 11:56:35;;;;;;;42.20;24.50;;;;;;;4.52;100.00;98052.10;109919;1273;139528;-60
2023/01/17 11:59:23;;;;;;;38.90;22.30;;;;;;;4.53;100.00;98050.49;109966;1275;22227;-60
2023/01/17 12:02:00;;;;;;;40.60;22.20;;;;;;;4.54;100.00;98050.52;110043;1270;22300;-60
2023/01/17 12:04:45;;;;;;;39.80;22.20;;;;;;;4.56;100.00;98049.99;109881;1279;22374;-60
2023/01/17 12:07:35;;;;;;;44.00;25.70;;;;;;;4.57;100.00;98041.65;109967;1276;22334;-60
2023/01/17 12:10:32;;;;;;;40.50;23.40;;;;;;;4.59;100.00;98046.96;109921;1278;138928;-60
2023/01/17 12:16:47;;;;;;;54.40;27.40;;;;;;;4.61;100.00;98050.48;109471;1285;139928;-60
2023/01/17 12:19:36;;;;;;;45.60;25.20;;;;;;;4.61;100.00;98048.77;109618;1285;22270;-60
2023/01/17 12:22:07;;;;;;;45.50;26.10;;;;;;;4.62;100.00;98052.20;109316;1283;141107;-60
2023/01/17 12:24:46;;;;;;;56.50;29.20;;;;;;;4.62;100.00;98041.36;109505;1284;22296;-60
2023/01/17 12:27:23;;;;;;;51.40;27.60;;;;;;;4.63;100.00;98040.49;109487;1285;138687;-60
2023/01/17 12:30:54;;;;;;;46.70;25.60;;;;;;;4.64;100.00;98039.27;109510;1284;23552;-60
2023/01/17 12:33:32;;;;;;;50.10;28.50;;;;;;;4.66;100.00;98042.63;108502;1295;139440;-61
2023/01/17 12:36:06;;;;;;;55.80;28.90;;;;;;;4.67;100.00;98044.80;108454;1293;22309;-60
2023/01/17 12:38:38;;;;;;;44.20;24.30;;;;;;;4.67;100.00;98037.90;108403;1295;139587;-60
2023/01/17 12:41:25;;;;;;;45.10;25.90;;;;;;;4.68;100.00;98042.98;108663;1296;22331;-60
2023/01/17 12:43:57;;;;;;;51.30;24.80;;;;;;;4.69;100.00;98051.62;108398;1293;22266;-61
2023/01/17 12:46:39;;;;;;;46.40;28.10;;;;;;;4.70;100.00;98052.16;108535;1297;139354;-60
2023/01/17 12:49:30;;;;;;;43.80;25.20;;;;;;;4.71;100.00;98058.01;108692;1290;23031;-60
2023/01/17 12:52:01;;;;;;;48.00;25.40;;;;;;;4.72;100.00;98056.67;109182;1287;138619;-60
2023/01/17 12:54:44;;;;;;;46.40;27.20;;;;;;;4.70;100.00;98056.61;108999;1285;23007;-61
2023/01/17 12:57:16;;;;;;;52.70;29.70;;;;;;;4.73;100.00;98060.09;109132;1285;138783;-60
2023/01/17 12:59:50;;;;;;;53.30;28.90;;;;;;;4.74;100.00;98061.81;109236;1290;22243;-60
2023/01/17 17:07:53;;;;;;;69.60;33.20;;;;;;;5.26;100.00;98079.14;103423;1279;558640;-59
2023/01/17 17:10:20;;;;;;;54.10;29.50;;;;;;;5.39;100.00;98085.86;109125;1291;94926;-60
2023/01/17 17:12:47;;;;;;;50.90;29.60;;;;;;;5.44;100.00;98087.70;109129;1285;138067;-61
2023/01/17 17:15:14;;;;;;;47.00;29.00;;;;;;;5.47;100.00;98089.44;109253;1289;23015;-61
2023/01/17 17:17:41;;;;;;;;;;;;;;;5.50;100.00;98094.20;109222;1285;140052;-60
2023/01/17 17:20:24;;;;;;;49.70;29.60;;;;;;;5.52;100.00;98101.83;108163;1283;22559;-62
2023/01/17 17:23:16;;;;;;;45.70;27.30;;;;;;;5.54;100.00;98104.13;101935;1283;22646;-62
2023/01/17 17:25:43;;;;;;;;;;;;;;;5.55;100.00;98101.59;104242;1291;137771;-62
2023/01/17 17:28:15;;;;;;;48.20;26.40;;;;;;;5.56;100.00;98104.73;104805;1288;22550;-62
2023/01/17 17:30:42;;;;;;;49.10;27.30;;;;;;;5.56;100.00;98107.88;104445;1290;138427;-62
2023/01/17 17:33:10;;;;;;;43.60;25.60;;;;;;;5.57;100.00;98109.92;108813;1290;22313;-63
2023/01/17 17:35:37;;;;;;;41.00;24.90;;;;;;;5.59;100.00;98111.58;109067;1291;139768;-63
2023/01/17 17:38:05;;;;;;;;;;;;;;;5.61;100.00;98107.64;109221;1291;23205;-62
2023/01/17 17:40:35;;;;;;;43.20;24.20;;;;;;;5.62;100.00;98111.00;109164;1289;22416;-63
2023/01/17 17:43:01;;;;;;;37.50;21.50;;;;;;;5.64;100.00;98110.28;109014;1291;140228;-62
2023/01/17 17:45:28;;;;;;;38.50;23.60;;;;;;;5.66;100.00;98107.88;109205;1285;22305;-63
2023/01/17 17:47:55;;;;;;;38.60;22.80;;;;;;;5.69;100.00;98107.89;109168;1285;139984;-63
2023/01/17 17:50:22;;;;;;;;;;;;;;;5.71;100.00;98111.48;109625;1286;22428;-63
2023/01/17 17:52:48;;;;;;;35.40;21.10;;;;;;;5.74;100.00;98112.31;109557;1286;23218;-62
2023/01/17 17:55:17;;;;;;;;;;;;;;;5.76;100.00;98116.81;109495;1278;139807;-63
2023/01/17 17:57:44;;;;;;;40.50;22.80;;;;;;;5.75;100.00;98119.10;109596;1285;22239;-63
2023/01/17 18:00:11;;;;;;;42.70;23.20;;;;;;;5.76;100.00;98118.63;109349;1283;139530;-63
2023/01/17 18:02:38;;;;;;;34.60;21.80;;;;;;;5.81;100.00;98122.45;109551;1286;22964;-63
2023/01/17 18:05:05;;;;;;;;;;;;;;;5.83;100.00;98124.14;109586;1284;22431;-62
2023/01/17 18:07:33;;;;;;;38.50;20.30;;;;;;;5.86;100.00;98129.51;109492;1281;124305;-63
2023/01/17 18:09:59;;;;;;;38.20;20.20;;;;;;;5.87;100.00;98138.17;109601;1285;22539;-62
2023/01/17 18:12:26;;;;;;;32.40;19.60;;;;;;;5.88;100.00;98137.61;109425;1286;139114;-63
2023/01/17 18:14:53;;;;;;;37.30;20.60;;;;;;;5.89;100.00;98139.73;109543;1282;22292;-63
2023/01/17 18:17:19;;;;;;;32.10;19.60;;;;;;;5.92;100.00;98138.77;109588;1286;23232;-63
2023/01/17 18:19:46;;;;;;;;;;;;;;;5.92;100.00;98130.16;109469;1282;139395;-63
2023/01/17 18:22:13;;;;;;;36.20;21.10;;;;;;;5.98;100.00;98136.48;109549;1286;22354;-63
2023/01/17 18:24:40;;;;;;;32.80;20.00;;;;;;;5.98;100.00;98130.20;109444;1280;137979;-62
2023/01/17 18:27:09;;;;;;;33.90;19.60;;;;;;;5.99;100.00;98131.83;109525;1281;22308;-62
2023/01/17 18:29:35;;;;;;;40.40;21.30;;;;;;;6.00;100.00;98138.34;109398;1285;138171;-63
2023/01/17 18:32:02;;;;;;;36.60;20.10;;;;;;;5.98;100.00;98144.48;109511;1278;22383;-62
2023/01/17 18:34:29;;;;;;;;;;;;;;;6.03;100.00;98155.27;109545;1286;22468;-63
2023/01/17 18:36:56;;;;;;;35.90;19.00;;;;;;;6.04;100.00;98150.91;109424;1281;124522;-62
2023/01/17 18:39:24;;;;;;;36.30;20.30;;;;;;;6.05;100.00;98154.10;109506;1286;23074;-63
2023/01/17 18:41:52;;;;;;;36.00;21.10;;;;;;;6.06;100.00;98163.17;109483;1285;138285;-63
2023/01/17 18:44:19;;;;;;;33.40;20.00;;;;;;;6.08;100.00;98161.23;109513;1281;22613;-62
2023/01/17 18:46:49;;;;;;;35.80;19.20;;;;;;;6.10;100.00;98158.97;109553;1286;23445;-62
2023/01/17 18:49:17;;;;;;;35.10;18.80;;;;;;;6.10;100.00;98164.81;109424;1284;138017;-63